メインページ
METAR-TAF:

METAR-TAF

空港 :

ロマン・トメトゥチェル国際空港

コロール, バベルダオブ島, パラオ

緯度: 07-22N, 経度: 134-32E, 海抜: 54m

現時点の気象観測

当レポートは26分前の12:50(UTC)に作成
東/北東の風 7kt
気温 27°C
湿度 89%
気圧 1011 hPa
視程: 24.1km
高度1600ftの雲は散在している, 積乱雲.
高度12000ftの千切れ雲あり
高度30000ftの千切れ雲あり

METAR: PTRO 201250Z 07007KT 15SM SCT016CB BKN120 BKN300 27/25 A2984 RMK CB ALQDS

時間: 22:16 (13:16 UTC)

予報

当レポートは1時間44分前の11:32(UTC)に作成
予報は20日の 12時(UTC)から 21日の 12時(UTC)まで有効
の風 7kt
視程: 10km
高度1600ftの雲は散在している
高度12000ftの千切れ雲あり

TAF: PTRO 201132Z 2012/2112 09007KT P6SM SCT016 BKN120

4,000以上の空港の気象観測と天気予報(METAR報とTAF報)

利用可能な観測所は地図上に黄色い丸と赤い丸で示す。

丸の上にカーソルを重ねると観測所名を参照できる。

次にクリックすると気象観測と天気予報を参照できる。

マップの切り替え:黒色「×」印の緑ボタンをクリックして拡大、「-」印の緑ボタンをクリックして縮小、緑色の三角印をクリックして隣りの地図に切り替え


METAR-TAF: